Time;durP1;ratioP1;P1;durP2;ratioP2;P2;SDS_P1;SDS_P2;PMS_P1;PMS_P2;Temp;Humidity;BMP_temperature;BMP_pressure;BME280_temperature;BME280_humidity;BME280_pressure;Samples;Min_cycle;Max_cycle;Signal;HPM_P1;HPM_P2
2024/01/10 00:01:17;;;;;;;22.40;12.05;;;-6.70;79.00;;;;;;5054307;28;20291;-64
2024/01/10 00:03:44;;;;;;;20.65;10.20;;;-6.70;79.00;;;;;;5056268;28;20221;-65
2024/01/10 00:06:11;;;;;;;18.98;10.05;;;-6.60;79.10;;;;;;5055157;28;20196;-65
2024/01/10 00:08:38;;;;;;;12.73;6.72;;;-6.60;79.10;;;;;;5059758;28;20201;-67
2024/01/10 00:11:05;;;;;;;16.00;10.25;;;-6.40;79.20;;;;;;5060141;28;20212;-65
2024/01/10 00:13:34;;;;;;;18.02;9.68;;;-6.40;76.50;;;;;;5062925;28;20230;-65
2024/01/10 00:16:01;;;;;;;18.02;9.35;;;-6.40;78.50;;;;;;5073879;28;20221;-65
2024/01/10 00:18:28;;;;;;;19.38;9.13;;;-6.50;76.50;;;;;;5059069;28;20201;-65
2024/01/10 00:20:54;;;;;;;18.52;9.43;;;-6.60;75.30;;;;;;5075604;28;20699;-65
2024/01/10 00:23:21;;;;;;;16.80;8.88;;;-6.60;76.80;;;;;;5075692;28;20246;-65
2024/01/10 00:25:48;;;;;;;15.82;8.70;;;-6.90;74.90;;;;;;5062275;28;20193;-65
2024/01/10 00:28:16;;;;;;;15.05;8.52;;;-7.10;78.60;;;;;;5072738;28;20207;-65
2024/01/10 00:30:45;;;;;;;17.17;8.60;;;-7.10;78.70;;;;;;5075210;28;20631;-65
2024/01/10 00:33:12;;;;;;;15.45;9.55;;;-7.20;79.90;;;;;;5058884;28;20245;-65
2024/01/10 00:35:38;;;;;;;20.48;11.48;;;-7.30;81.20;;;;;;5075601;28;20216;-65
2024/01/10 00:38:05;;;;;;;17.45;8.80;;;-7.30;85.90;;;;;;5075385;28;20216;-65
2024/01/10 00:40:32;;;;;;;24.25;10.63;;;-7.40;85.90;;;;;;5063972;28;20197;-65
2024/01/10 00:42:59;;;;;;;15.18;9.50;;;-7.40;91.30;;;;;;5063560;28;20225;-65
2024/01/10 00:45:26;;;;;;;22.00;11.52;;;-7.50;91.30;;;;;;5065415;28;20214;-65
2024/01/10 00:47:54;;;;;;;17.63;10.13;;;-7.60;91.30;;;;;;5069323;28;20583;-65
2024/01/10 00:50:20;;;;;;;17.38;8.60;;;-7.60;91.40;;;;;;5063291;28;20205;-65
2024/01/10 00:52:47;;;;;;;18.08;10.45;;;-7.40;97.50;;;;;;5060226;28;20248;-65
2024/01/10 00:55:14;;;;;;;18.70;8.57;;;-7.10;94.70;;;;;;5075038;28;20227;-65
2024/01/10 00:57:41;;;;;;;12.73;7.57;;;-7.10;91.50;;;;;;5061929;28;20229;-65
2024/01/10 01:00:10;;;;;;;12.15;7.68;;;-7.00;91.50;;;;;;5071439;28;20197;-65
2024/01/10 01:02:39;;;;;;;18.23;10.45;;;-6.90;91.50;;;;;;5074926;28;20231;-65
2024/01/10 01:05:08;;;;;;;12.40;6.25;;;-6.80;91.60;;;;;;5075075;28;20232;-65
2024/01/10 01:07:34;;;;;;;20.55;10.88;;;-6.70;90.70;;;;;;5074547;28;20200;-65
2024/01/10 01:10:01;;;;;;;12.95;8.27;;;-6.80;87.30;;;;;;5075012;28;20216;-65
2024/01/10 01:12:28;;;;;;;17.98;8.73;;;-7.10;86.10;;;;;;5074629;28;20224;-65
2024/01/10 01:14:55;;;;;;;19.80;10.48;;;-7.20;86.50;;;;;;5074776;28;20632;-65
2024/01/10 01:17:22;;;;;;;20.48;10.23;;;-7.40;88.30;;;;;;5074395;28;20217;-64
2024/01/10 01:19:49;;;;;;;24.30;10.65;;;-7.40;91.30;;;;;;5069269;28;20589;-65
2024/01/10 01:22:17;;;;;;;16.20;9.70;;;-7.50;91.30;;;;;;5054414;28;20715;-65
2024/01/10 01:24:43;;;;;;;21.80;10.57;;;-7.60;91.30;;;;;;5062783;28;20204;-64
2024/01/10 01:27:10;;;;;;;21.73;10.68;;;-7.30;92.80;;;;;;5054052;28;20591;-63
2024/01/10 01:29:37;;;;;;;20.55;11.15;;;-7.50;91.30;;;;;;5054324;28;20212;-65
2024/01/10 01:32:04;;;;;;;22.70;10.25;;;-7.70;91.30;;;;;;5070132;28;20222;-64
2024/01/10 01:34:31;;;;;;;20.38;10.00;;;-7.70;91.60;;;;;;5074379;28;20200;-65
2024/01/10 01:36:58;;;;;;;12.82;8.90;;;-7.80;91.20;;;;;;5067428;28;20217;-65
2024/01/10 01:39:26;;;;;;;16.65;9.98;;;-7.80;92.80;;;;;;5064098;28;20196;-64
2024/01/10 01:41:53;;;;;;;18.55;10.88;;;-7.90;94.40;;;;;;5074276;28;20631;-65
2024/01/10 01:44:19;;;;;;;19.63;11.18;;;-7.80;96.50;;;;;;5074348;28;20205;-65
2024/01/10 01:46:47;;;;;;;20.02;11.73;;;-7.90;96.40;;;;;;5060751;28;20201;-65
2024/01/10 01:49:15;;;;;;;20.15;10.55;;;-7.90;97.50;;;;;;5071256;28;20197;-64
2024/01/10 01:51:42;;;;;;;22.48;13.60;;;-7.90;97.50;;;;;;5074032;28;20204;-65
2024/01/10 01:54:09;;;;;;;24.65;15.23;;;-7.80;99.90;;;;;;5057610;28;20236;-65
2024/01/10 01:56:39;;;;;;;25.75;15.82;;;-7.80;99.90;;;;;;5065411;28;20717;-64
2024/01/10 01:59:06;;;;;;;21.30;19.15;;;-7.80;99.90;;;;;;5074123;28;20200;-65
2024/01/10 02:01:33;;;;;;;20.83;18.77;;;-7.90;99.90;;;;;;5073605;28;20702;-65
2024/01/10 02:04:01;;;;;;;24.70;22.20;;;-8.10;99.90;;;;;;5073698;28;20655;-65
2024/01/10 02:06:29;;;;;;;28.45;25.85;;;-8.10;99.90;;;;;;5073292;28;20282;-65
2024/01/10 02:08:56;;;;;;;50.80;47.65;;;-8.10;99.90;;;;;;5073665;28;20208;-65
2024/01/10 02:11:23;;;;;;;82.13;77.43;;;-8.00;99.90;;;;;;5073635;28;20211;-65
2024/01/10 02:13:54;;;;;;;77.88;73.10;;;-7.80;99.90;;;;;;5073576;28;20226;-64
2024/01/10 02:16:22;;;;;;;61.50;57.95;;;-8.00;99.90;;;;;;5056667;28;20263;-65
2024/01/10 02:18:49;;;;;;;55.70;52.25;;;-8.10;99.90;;;;;;5073263;28;20211;-65
2024/01/10 02:21:16;;;;;;;53.88;50.50;;;-8.10;99.90;;;;;;5073146;28;20713;-65
2024/01/10 02:23:43;;;;;;;67.20;63.15;;;-7.90;99.90;;;;;;5073694;28;20606;-65
2024/01/10 02:26:11;;;;;;;89.45;85.22;;;-8.10;99.90;;;;;;5073295;28;20222;-65
2024/01/10 02:28:38;;;;;;;33.25;30.95;;;-8.00;99.90;;;;;;5057454;28;20207;-61
2024/01/10 02:31:05;;;;;;;24.45;22.10;;;-7.70;99.90;;;;;;5057561;28;20604;-65
2024/01/10 02:33:32;;;;;;;17.60;14.70;;;-7.60;99.90;;;;;;5072403;28;20227;-64
2024/01/10 02:35:59;;;;;;;25.73;23.33;;;-7.40;99.90;;;;;;5073097;28;20204;-64
2024/01/10 02:38:26;;;;;;;29.77;26.65;;;-7.40;99.90;;;;;;5055810;28;20200;-65
2024/01/10 02:40:55;;;;;;;36.63;33.80;;;-7.70;99.90;;;;;;5059067;28;20228;-64
2024/01/10 02:43:23;;;;;;;49.03;45.88;;;-7.80;99.90;;;;;;5070761;28;20260;-65
2024/01/10 02:45:50;;;;;;;49.50;46.20;;;-7.90;99.90;;;;;;5073005;28;20250;-65
2024/01/10 02:48:17;;;;;;;47.40;44.47;;;-8.00;99.90;;;;;;5063496;28;20686;-64
2024/01/10 02:50:43;;;;;;;52.65;49.10;;;-8.10;99.90;;;;;;5065537;28;20671;-64
2024/01/10 02:53:10;;;;;;;52.10;48.35;;;-8.10;99.90;;;;;;5072889;28;20239;-63
2024/01/10 02:55:37;;;;;;;54.10;50.20;;;-8.20;99.90;;;;;;5056603;28;20674;-65
2024/01/10 02:58:04;;;;;;;76.90;71.95;;;-8.30;99.90;;;;;;5056997;28;20707;-65
2024/01/10 03:00:32;;;;;;;113.40;108.00;;;-8.20;99.90;;;;;;5060663;28;20209;-63
2024/01/10 03:02:59;;;;;;;110.47;105.40;;;-8.10;99.90;;;;;;5052600;28;20232;-65
2024/01/10 03:05:26;;;;;;;106.53;101.68;;;-8.20;99.90;;;;;;5071214;28;20230;-65
2024/01/10 03:07:52;;;;;;;103.35;98.20;;;-8.30;99.90;;;;;;5072116;28;20199;-65
2024/01/10 03:10:19;;;;;;;103.63;98.78;;;-8.20;99.90;;;;;;5072338;28;20226;-65
2024/01/10 03:12:46;;;;;;;164.85;157.85;;;-8.30;99.90;;;;;;5067462;28;20717;-65
2024/01/10 03:15:13;;;;;;;87.20;83.32;;;-8.20;99.90;;;;;;5060955;28;20291;-64
2024/01/10 03:17:41;;;;;;;63.35;59.95;;;-7.90;99.90;;;;;;5072459;28;20288;-64
2024/01/10 03:20:09;;;;;;;94.60;90.00;;;-7.80;99.90;;;;;;5064723;28;20201;-65
2024/01/10 03:22:36;;;;;;;87.63;83.63;;;-7.70;99.90;;;;;;5052503;28;20217;-65
2024/01/10 03:25:03;;;;;;;86.18;81.47;;;-7.80;99.90;;;;;;5059862;28;20203;-65
2024/01/10 03:27:29;;;;;;;92.15;87.68;;;-7.90;99.90;;;;;;5055278;28;20220;-65
2024/01/10 03:29:56;;;;;;;89.78;85.22;;;-8.00;99.90;;;;;;5071944;28;20208;-65
2024/01/10 03:32:23;;;;;;;82.20;77.40;;;-8.20;99.90;;;;;;5055729;28;20311;-65
2024/01/10 03:34:52;;;;;;;95.32;90.22;;;-8.30;99.90;;;;;;5058595;28;20201;-64
2024/01/10 03:37:19;;;;;;;95.68;90.97;;;-8.30;99.90;;;;;;5060282;28;20193;-65
2024/01/10 03:39:45;;;;;;;110.13;104.80;;;-8.40;99.90;;;;;;5060324;28;20250;-65
2024/01/10 03:42:12;;;;;;;119.10;113.65;;;-8.50;99.90;;;;;;5060250;28;20224;-63
2024/01/10 03:44:39;;;;;;;127.10;121.35;;;-8.30;99.90;;;;;;5072354;28;20215;-65
2024/01/10 03:47:06;;;;;;;171.10;164.05;;;-8.40;99.90;;;;;;5071935;28;20231;-65
2024/01/10 03:49:33;;;;;;;213.27;204.80;;;-8.40;99.90;;;;;;5068517;28;20201;-65
2024/01/10 03:52:01;;;;;;;201.60;193.43;;;-8.20;99.90;;;;;;5058850;28;20594;-65
2024/01/10 03:54:27;;;;;;;233.27;223.40;;;-8.10;99.90;;;;;;5061193;28;20686;-64
2024/01/10 03:56:54;;;;;;;215.05;205.68;;;-8.20;99.90;;;;;;5066052;28;20651;-64
2024/01/10 03:59:21;;;;;;;221.80;212.52;;;-8.30;99.90;;;;;;5071770;28;20789;-64
2024/01/10 04:01:48;;;;;;;211.90;202.98;;;-8.30;99.90;;;;;;5058686;28;20585;-65
2024/01/10 04:04:14;;;;;;;217.68;207.77;;;-8.40;99.90;;;;;;5060311;28;20197;-64
2024/01/10 04:06:41;;;;;;;190.88;182.43;;;-8.40;99.90;;;;;;5064098;28;20230;-65
2024/01/10 04:09:10;;;;;;;202.80;194.63;;;-8.50;99.90;;;;;;5071790;28;20207;-64
2024/01/10 04:11:37;;;;;;;197.65;189.45;;;-8.70;99.90;;;;;;5059686;28;20254;-64
2024/01/10 04:14:05;;;;;;;178.10;170.55;;;-8.50;99.90;;;;;;5051859;28;20197;-65
2024/01/10 04:16:32;;;;;;;165.32;158.27;;;-8.50;99.90;;;;;;5059938;28;20713;-63
2024/01/10 04:18:59;;;;;;;165.40;158.05;;;-8.60;99.90;;;;;;5066702;28;20222;-64
2024/01/10 04:21:25;;;;;;;157.35;150.52;;;-8.50;99.90;;;;;;5061322;28;20204;-65
2024/01/10 04:23:52;;;;;;;151.60;145.25;;;-8.60;99.90;;;;;;5051605;28;20703;-63
2024/01/10 04:26:20;;;;;;;147.32;140.60;;;-8.60;99.90;;;;;;5069329;28;20571;-65
2024/01/10 04:28:47;;;;;;;164.63;157.32;;;-8.60;99.90;;;;;;5058144;28;20252;-65
2024/01/10 04:31:14;;;;;;;187.68;179.77;;;-8.60;99.90;;;;;;5059990;28;20205;-65
2024/01/10 04:33:41;;;;;;;187.15;178.95;;;-8.60;99.90;;;;;;5063945;28;20220;-65
2024/01/10 04:36:08;;;;;;;246.63;236.30;;;-8.60;99.90;;;;;;5071427;28;20196;-65
2024/01/10 04:38:35;;;;;;;261.92;251.23;;;-8.60;99.90;;;;;;5071404;28;20197;-64
2024/01/10 04:41:01;;;;;;;30.65;28.25;;;-8.30;99.90;;;;;;5064674;28;20686;-64
2024/01/10 04:43:30;;;;;;;20.92;18.45;;;-7.90;99.90;;;;;;5051678;28;20228;-64
2024/01/10 04:45:56;;;;;;;38.17;35.47;;;-7.70;99.90;;;;;;5065774;28;20208;-65
2024/01/10 04:48:23;;;;;;;59.83;55.95;;;-7.60;99.90;;;;;;5071191;28;20220;-64
2024/01/10 04:50:50;;;;;;;61.35;57.47;;;-7.70;99.90;;;;;;5057604;28;20205;-65
2024/01/10 04:53:17;;;;;;;59.42;55.88;;;-7.90;99.90;;;;;;5059262;28;20602;-65
2024/01/10 04:55:44;;;;;;;66.90;63.03;;;-8.10;99.90;;;;;;5064535;28;20201;-64
2024/01/10 04:58:11;;;;;;;33.38;30.83;;;-8.10;99.90;;;;;;5071053;28;20200;-63
2024/01/10 05:00:39;;;;;;;14.45;12.90;;;-8.00;99.90;;;;;;5067786;28;20205;-64
2024/01/10 05:03:06;;;;;;;24.63;16.05;;;-7.70;99.90;;;;;;5062852;28;20577;-65
2024/01/10 05:05:33;;;;;;;18.15;15.63;;;-7.50;99.90;;;;;;5074757;28;20200;-64
2024/01/10 05:08:01;;;;;;;25.13;22.60;;;-7.60;99.90;;;;;;5074758;28;20708;-64
2024/01/10 05:10:27;;;;;;;29.48;26.65;;;-7.80;99.90;;;;;;5064155;28;20214;-64
2024/01/10 05:12:55;;;;;;;31.13;28.63;;;-7.90;99.90;;;;;;5069178;28;20227;-65
2024/01/10 05:15:21;;;;;;;36.22;33.45;;;-8.00;99.90;;;;;;5074887;28;20208;-65
2024/01/10 05:17:50;;;;;;;34.22;31.33;;;-8.00;99.90;;;;;;5074939;28;20201;-65
2024/01/10 05:20:16;;;;;;;35.80;32.97;;;-8.10;99.90;;;;;;5074616;28;20211;-67
2024/01/10 05:22:44;;;;;;;35.40;32.05;;;-8.20;99.90;;;;;;5074861;28;20225;-66
2024/01/10 05:25:11;;;;;;;33.03;30.23;;;-8.30;99.90;;;;;;5066394;28;20204;-66
2024/01/10 05:27:37;;;;;;;37.20;34.08;;;-8.30;99.90;;;;;;5066296;28;20601;-66
2024/01/10 05:30:05;;;;;;;38.53;36.22;;;-8.40;99.90;;;;;;5058596;28;20217;-67
2024/01/10 05:32:32;;;;;;;31.60;29.17;;;-8.40;99.90;;;;;;5073845;28;20223;-65
2024/01/10 05:35:00;;;;;;;39.53;35.67;;;-8.20;99.90;;;;;;5074325;28;20201;-65
2024/01/10 05:37:27;;;;;;;41.97;38.45;;;-8.10;99.90;;;;;;5063353;28;20204;-64
2024/01/10 05:39:53;;;;;;;40.15;37.45;;;-8.20;99.90;;;;;;5068457;28;20204;-65
2024/01/10 05:42:20;;;;;;;37.42;34.35;;;-8.30;99.90;;;;;;5072844;28;20216;-64
2024/01/10 05:44:47;;;;;;;27.23;24.83;;;-8.30;99.90;;;;;;5059468;28;20236;-65
2024/01/10 05:47:14;;;;;;;26.05;20.85;;;-8.20;99.90;;;;;;5073648;28;20216;-65
2024/01/10 05:49:42;;;;;;;24.60;22.00;;;-8.00;99.90;;;;;;5070312;28;20291;-65
2024/01/10 05:52:10;;;;;;;27.42;23.63;;;-8.00;99.90;;;;;;5062572;28;20269;-67
2024/01/10 05:54:37;;;;;;;34.10;31.10;;;-8.10;99.90;;;;;;5073879;28;20679;-67
2024/01/10 05:57:04;;;;;;;34.05;30.60;;;-8.10;99.90;;;;;;5063311;28;20201;-67
2024/01/10 05:59:31;;;;;;;29.02;26.70;;;-8.10;99.90;;;;;;5052026;28;20296;-67
2024/01/10 06:01:58;;;;;;;33.15;29.50;;;-8.30;99.90;;;;;;5057783;28;20226;-67
2024/01/10 06:04:25;;;;;;;25.15;22.98;;;-8.60;99.90;;;;;;5056824;28;20224;-65
2024/01/10 06:06:52;;;;;;;27.75;24.80;;;-8.40;99.90;;;;;;5073750;28;20287;-67
2024/01/10 06:09:21;;;;;;;25.02;22.52;;;-8.30;99.90;;;;;;5073995;28;20259;-66
2024/01/10 06:11:48;;;;;;;27.55;25.13;;;-8.30;99.90;;;;;;5072460;28;20208;-67
2024/01/10 06:14:15;;;;;;;31.15;28.70;;;-8.30;99.90;;;;;;5072188;28;20204;-66
2024/01/10 06:16:42;;;;;;;34.50;31.55;;;-8.30;99.90;;;;;;5073250;28;20196;-67
2024/01/10 06:19:10;;;;;;;32.75;29.85;;;-8.40;99.90;;;;;;5057442;28;20193;-67
2024/01/10 06:21:37;;;;;;;32.83;30.05;;;-8.50;99.90;;;;;;5064870;28;20200;-67
2024/01/10 06:24:04;;;;;;;31.60;28.65;;;-8.50;99.90;;;;;;5073484;28;20205;-67
2024/01/10 06:26:32;;;;;;;36.10;32.95;;;-8.60;99.90;;;;;;5061775;28;20197;-67
2024/01/10 06:28:59;;;;;;;49.83;46.88;;;-8.60;99.90;;;;;;5067900;28;20323;-68
2024/01/10 06:31:25;;;;;;;58.03;53.92;;;-8.50;99.90;;;;;;5056961;28;20196;-67
2024/01/10 06:33:52;;;;;;;18.20;15.95;;;-8.90;99.90;;;;;;5073440;28;20243;-68
2024/01/10 06:36:19;;;;;;;11.23;10.13;;;-8.10;99.90;;;;;;5073396;28;20204;-67
2024/01/10 06:38:47;;;;;;;18.15;10.88;;;-7.80;99.90;;;;;;5072911;28;20207;-68
2024/01/10 06:41:14;;;;;;;27.70;16.90;;;-7.70;99.90;;;;;;5064455;28;20287;-68
2024/01/10 06:43:42;;;;;;;19.45;16.40;;;-7.90;99.90;;;;;;5064633;28;20278;-68
2024/01/10 06:46:11;;;;;;;21.13;16.23;;;-8.10;99.90;;;;;;5072963;28;20200;-67
2024/01/10 06:48:39;;;;;;;20.33;17.73;;;-8.10;99.90;;;;;;5072998;28;20224;-68
2024/01/10 06:51:10;;;;;;;24.48;22.08;;;-8.10;99.90;;;;;;5072858;28;20200;-68
2024/01/10 06:53:37;;;;;;;25.83;23.38;;;-8.20;99.90;;;;;;5052930;28;20237;-68
2024/01/10 06:56:04;;;;;;;28.00;25.80;;;-8.20;99.90;;;;;;5052252;28;20201;-67
2024/01/10 06:58:31;;;;;;;33.13;30.25;;;-8.50;99.90;;;;;;5063659;28;20204;-68
2024/01/10 07:01:00;;;;;;;30.30;27.10;;;-8.20;99.90;;;;;;5072779;28;20200;-67
2024/01/10 07:03:27;;;;;;;20.95;12.50;;;-8.10;99.90;;;;;;5056308;28;20662;-68
2024/01/10 07:05:57;;;;;;;18.73;12.40;;;-7.80;99.90;;;;;;5072582;28;20258;-67
2024/01/10 07:08:23;;;;;;;14.95;10.02;;;-7.60;99.90;;;;;;5071651;28;20216;-68
2024/01/10 07:10:50;;;;;;;17.85;10.50;;;-7.50;99.90;;;;;;5071665;28;20200;-66
2024/01/10 07:13:17;;;;;;;24.98;10.80;;;-7.40;99.90;;;;;;5071615;28;20224;-67
2024/01/10 07:15:44;;;;;;;41.58;12.63;;;-7.50;99.90;;;;;;5068010;28;20201;-68
2024/01/10 07:18:12;;;;;;;22.02;12.80;;;-7.70;99.90;;;;;;5060518;28;20200;-67
2024/01/10 07:20:39;;;;;;;22.50;12.68;;;-7.80;99.90;;;;;;5056629;28;20196;-67
2024/01/10 07:23:05;;;;;;;18.33;13.15;;;-8.00;99.90;;;;;;5071802;28;20238;-68
2024/01/10 07:25:33;;;;;;;22.20;14.52;;;-8.10;99.90;;;;;;5068452;28;20664;-68
2024/01/10 07:28:00;;;;;;;24.60;16.50;;;-8.10;99.90;;;;;;5058322;28;20255;-67
2024/01/10 07:30:27;;;;;;;33.60;19.08;;;-8.00;99.90;;;;;;5071970;28;20371;-67
2024/01/10 07:32:54;;;;;;;30.90;27.75;;;-8.00;99.90;;;;;;5057991;28;20707;-68
2024/01/10 07:35:22;;;;;;;43.75;39.30;;;-8.00;99.90;;;;;;5068905;28;20200;-68
2024/01/10 07:37:49;;;;;;;50.25;46.15;;;-8.00;99.90;;;;;;5057058;28;20192;-68
2024/01/10 07:40:16;;;;;;;25.25;22.60;;;-7.90;99.90;;;;;;5071367;28;20208;-67
2024/01/10 07:42:45;;;;;;;30.15;27.40;;;-7.70;99.90;;;;;;5057007;28;20598;-67
2024/01/10 07:45:12;;;;;;;30.45;27.77;;;-7.80;99.90;;;;;;5064979;28;20201;-67
2024/01/10 07:47:39;;;;;;;32.38;29.38;;;-7.80;99.90;;;;;;5071332;28;20204;-67
2024/01/10 07:50:07;;;;;;;28.90;26.20;;;-7.70;99.90;;;;;;5071769;28;20704;-67
2024/01/10 07:52:35;;;;;;;29.35;26.52;;;-7.60;99.90;;;;;;5071453;28;20832;-68
2024/01/10 07:55:04;;;;;;;28.73;25.85;;;-7.80;99.90;;;;;;5064812;28;20614;-68
2024/01/10 07:57:32;;;;;;;29.30;26.70;;;-7.90;99.90;;;;;;5062719;28;20588;-67
2024/01/10 07:59:59;;;;;;;32.10;26.65;;;-7.90;99.90;;;;;;5071249;28;20594;-67
2024/01/10 08:02:25;;;;;;;33.97;29.65;;;-7.90;99.90;;;;;;5071320;28;20216;-68
2024/01/10 08:04:53;;;;;;;45.65;32.72;;;-7.90;99.90;;;;;;5065504;28;20202;-67
2024/01/10 08:07:20;;;;;;;33.00;30.33;;;-7.80;99.90;;;;;;5059549;28;20288;-69
2024/01/10 08:09:48;;;;;;;32.40;28.05;;;-7.80;99.90;;;;;;5055110;28;20515;-65
2024/01/10 08:12:15;;;;;;;32.85;26.70;;;-7.80;99.90;;;;;;5070471;28;20224;-65
2024/01/10 08:14:45;;;;;;;35.72;26.52;;;-7.60;99.90;;;;;;5055279;28;20203;-65
2024/01/10 08:17:12;;;;;;;33.55;26.95;;;-7.60;99.90;;;;;;5071588;28;20196;-65
2024/01/10 08:19:39;;;;;;;36.25;32.47;;;-7.60;99.90;;;;;;5071410;28;20204;-65
2024/01/10 08:22:07;;;;;;;40.08;33.35;;;-7.60;99.90;;;;;;5063910;28;20229;-65
2024/01/10 08:24:34;;;;;;;40.13;36.85;;;-7.40;99.90;;;;;;5063327;28;20204;-65
2024/01/10 08:27:03;;;;;;;49.75;45.25;;;-7.30;99.90;;;;;;5064538;28;20201;-65
2024/01/10 08:29:31;;;;;;;56.65;52.00;;;-7.10;99.90;;;;;;5051383;28;20225;-64
2024/01/10 08:31:58;;;;;;;51.05;47.15;;;-7.20;99.90;;;;;;5066191;28;20251;-65
2024/01/10 08:34:25;;;;;;;46.20;41.30;;;-7.00;99.90;;;;;;5071836;28;20200;-64
2024/01/10 08:36:52;;;;;;;38.45;34.83;;;-7.30;99.90;;;;;;5073957;28;20588;-65
2024/01/10 08:39:19;;;;;;;37.10;33.28;;;-7.30;99.90;;;;;;5075405;28;20219;-66
2024/01/10 08:41:46;;;;;;;46.28;42.47;;;-7.30;99.90;;;;;;5061809;28;20543;-64
2024/01/10 08:44:14;;;;;;;45.40;36.80;;;-7.30;99.90;;;;;;5055775;28;20200;-64
2024/01/10 08:46:42;;;;;;;43.80;34.95;;;-7.30;99.90;;;;;;5075131;28;20211;-65
2024/01/10 08:49:09;;;;;;;75.95;44.78;;;-7.30;99.90;;;;;;5075328;28;20227;-65
2024/01/10 08:51:36;;;;;;;63.17;40.78;;;-7.30;99.90;;;;;;5075441;28;20200;-65
2024/01/10 08:54:04;;;;;;;39.05;34.92;;;-7.30;99.90;;;;;;5067401;28;20222;-62
2024/01/10 08:56:31;;;;;;;43.50;34.55;;;-7.30;99.90;;;;;;5061461;28;20216;-64
2024/01/10 08:58:58;;;;;;;49.85;43.50;;;-7.20;99.90;;;;;;5063260;28;20201;-65
2024/01/10 09:01:26;;;;;;;58.75;54.65;;;-7.20;99.90;;;;;;5059563;28;20683;-65
2024/01/10 09:03:53;;;;;;;69.22;64.15;;;-7.10;99.90;;;;;;5061136;28;20244;-66
2024/01/10 09:06:20;;;;;;;82.35;77.32;;;-7.00;99.90;;;;;;5065285;28;20204;-64
2024/01/10 09:08:47;;;;;;;82.43;76.82;;;-6.90;99.90;;;;;;5068179;28;20220;-65
2024/01/10 09:11:14;;;;;;;73.85;69.70;;;-6.90;99.90;;;;;;5058602;28;20195;-67
2024/01/10 09:13:41;;;;;;;92.43;87.22;;;-6.90;99.90;;;;;;5054275;28;20217;-66
2024/01/10 09:16:09;;;;;;;78.80;73.88;;;-6.90;99.90;;;;;;5071032;28;20207;-65
2024/01/10 09:18:38;;;;;;;69.90;65.43;;;-6.90;99.90;;;;;;5075032;28;20626;-65
2024/01/10 09:21:05;;;;;;;62.70;58.80;;;-6.90;99.90;;;;;;5059315;28;20555;-65
2024/01/10 09:23:32;;;;;;;62.47;58.22;;;-6.80;99.90;;;;;;5074447;28;20216;-65
2024/01/10 09:25:59;;;;;;;56.78;52.83;;;-6.60;99.90;;;;;;5074713;28;20204;-65
2024/01/10 09:28:26;;;;;;;62.65;57.97;;;-6.40;99.90;;;;;;5058285;28;20263;-65
2024/01/10 09:30:54;;;;;;;60.15;55.75;;;-6.40;99.90;;;;;;5074781;28;20304;-65
2024/01/10 09:33:22;;;;;;;59.92;55.38;;;-6.40;99.90;;;;;;5058034;28;20729;-65
2024/01/10 09:35:50;;;;;;;58.17;54.17;;;-6.30;99.90;;;;;;5061584;28;20202;-65
2024/01/10 09:38:18;;;;;;;55.20;50.83;;;-6.10;99.90;;;;;;5071961;28;20206;-65
2024/01/10 09:40:44;;;;;;;50.20;46.75;;;-6.00;99.90;;;;;;5073949;28;20205;-65
2024/01/10 09:43:12;;;;;;;44.63;40.33;;;-5.80;99.90;;;;;;5057467;28;20230;-65
2024/01/10 09:45:47;;;;;;;35.45;28.02;;;-5.70;99.90;;;;;;5074518;28;20212;-65
2024/01/10 09:48:15;;;;;;;31.15;24.67;;;-5.60;99.90;;;;;;5064677;28;20665;-65
2024/01/10 09:50:42;;;;;;;26.75;19.40;;;-5.50;99.90;;;;;;5066482;28;20204;-64
2024/01/10 09:53:17;;;;;;;23.77;16.58;;;-5.40;99.90;;;;;;5073952;28;20658;-65
2024/01/10 09:55:45;;;;;;;30.50;15.20;;;-5.30;99.90;;;;;;5055618;28;20203;-65
2024/01/10 09:58:12;;;;;;;22.83;13.38;;;-5.20;99.90;;;;;;5053789;28;20211;-64
2024/01/10 10:00:41;;;;;;;23.80;12.77;;;-5.10;99.90;;;;;;5065996;28;20198;-65
2024/01/10 10:03:11;;;;;;;26.52;13.50;;;-5.10;99.90;;;;;;5073832;28;20617;-66
2024/01/10 10:05:38;;;;;;;19.70;11.10;;;-4.90;99.90;;;;;;5061857;28;20292;-65
2024/01/10 10:08:09;;;;;;;30.02;11.82;;;-4.80;99.90;;;;;;5061938;28;20254;-65
2024/01/10 10:10:42;;;;;;;20.63;11.02;;;-4.70;99.90;;;;;;5062363;28;20226;-65
2024/01/10 10:13:11;;;;;;;18.25;12.50;;;-4.60;99.90;;;;;;5053769;28;20660;-65
2024/01/10 10:15:38;;;;;;;23.73;12.30;;;-4.50;99.90;;;;;;5053818;28;20222;-69
2024/01/10 10:18:05;;;;;;;19.98;11.65;;;-4.40;99.90;;;;;;5068904;28;20204;-64
2024/01/10 10:20:35;;;;;;;22.48;10.35;;;-4.20;99.90;;;;;;5073631;28;20591;-65
2024/01/10 10:23:03;;;;;;;23.98;12.25;;;-4.10;99.90;;;;;;5058239;28;20225;-66
2024/01/10 10:25:32;;;;;;;17.98;10.88;;;-4.10;99.90;;;;;;5056237;28;20196;-64
2024/01/10 10:28:02;;;;;;;22.73;11.50;;;-4.00;99.90;;;;;;5058568;28;20204;-65
2024/01/10 10:30:29;;;;;;;23.75;12.50;;;-3.90;99.10;;;;;;5055511;28;20235;-65
2024/01/10 10:32:56;;;;;;;21.23;12.10;;;-3.80;99.10;;;;;;5058765;28;20231;-65
2024/01/10 10:35:22;;;;;;;23.58;11.63;;;-3.80;99.50;;;;;;5061744;28;20201;-65
2024/01/10 10:37:50;;;;;;;24.90;11.63;;;-3.80;99.10;;;;;;5066577;28;20200;-65
2024/01/10 10:40:17;;;;;;;21.55;10.65;;;-3.70;99.20;;;;;;5072469;28;20196;-65
2024/01/10 10:42:46;;;;;;;23.13;12.65;;;-3.70;99.20;;;;;;5057587;28;20220;-65
2024/01/10 10:45:17;;;;;;;20.67;9.90;;;-3.70;99.10;;;;;;5072955;28;20208;-65
2024/01/10 10:47:46;;;;;;;21.33;11.40;;;-3.60;94.80;;;;;;5060120;28;20201;-64
2024/01/10 10:50:15;;;;;;;21.42;11.43;;;-3.50;94.90;;;;;;5069706;28;20226;-65
2024/01/10 10:52:46;;;;;;;22.52;10.70;;;-3.40;94.50;;;;;;5072893;28;20265;-65
2024/01/10 10:55:16;;;;;;;21.25;10.55;;;-3.40;96.00;;;;;;5055564;28;20197;-65
2024/01/10 10:57:45;;;;;;;22.60;13.43;;;-3.20;93.00;;;;;;5052289;28;20250;-65
2024/01/10 11:00:16;;;;;;;18.98;11.02;;;-3.00;93.00;;;;;;5052012;28;20664;-65
2024/01/10 11:02:43;;;;;;;21.23;10.32;;;-2.80;91.10;;;;;;5052826;28;20712;-65
2024/01/10 11:05:10;;;;;;;15.48;9.27;;;-2.70;89.90;;;;;;5053044;28;20619;-65
2024/01/10 11:07:37;;;;;;;18.33;11.48;;;-2.70;82.50;;;;;;5050443;28;20185;-65
2024/01/10 11:10:09;;;;;;;21.30;11.52;;;-2.70;82.40;;;;;;5052671;28;20258;-65
2024/01/10 11:13:02;;;;;;;22.70;11.07;;;-2.80;75.00;;;;;;5052503;28;20219;-65
2024/01/10 11:15:52;;;;;;;26.60;11.02;;;-2.70;80.40;;;;;;5052258;28;20534;-65
2024/01/10 11:18:49;;;;;;;23.45;11.45;;;-2.70;75.40;;;;;;5052628;28;20197;-70
2024/01/10 11:21:27;;;;;;;24.05;11.30;;;-2.70;71.70;;;;;;5051486;28;20193;-64
2024/01/10 11:23:57;;;;;;;24.38;11.63;;;-2.60;67.20;;;;;;5051432;28;20239;-65
2024/01/10 11:26:24;;;;;;;19.23;11.82;;;-2.60;67.20;;;;;;5051535;28;20195;-65
2024/01/10 11:28:51;;;;;;;21.08;11.75;;;-2.60;67.20;;;;;;5051249;28;20219;-64
2024/01/10 11:31:30;;;;;;;25.40;11.25;;;-2.60;67.20;;;;;;5051777;28;20791;-65
2024/01/10 11:33:57;;;;;;;20.95;12.25;;;-2.60;67.30;;;;;;5046179;28;20188;-64
2024/01/10 11:36:25;;;;;;;22.23;12.27;;;-2.50;67.30;;;;;;5059609;28;20204;-65
2024/01/10 11:38:56;;;;;;;25.10;11.10;;;-2.40;67.40;;;;;;5051842;28;20594;-65
2024/01/10 11:41:25;;;;;;;20.88;11.20;;;-2.30;67.50;;;;;;5051821;28;20200;-65
2024/01/10 11:44:42;;;;;;;30.67;12.05;;;-2.10;67.70;;;;;;5050677;28;20241;-65
2024/01/10 11:47:11;;;;;;;22.88;12.40;;;-1.80;68.00;;;;;;5047334;28;20195;-64
2024/01/10 11:49:37;;;;;;;23.88;11.82;;;-1.60;73.20;;;;;;5042773;28;20218;-63
2024/01/10 11:52:04;;;;;;;26.48;14.50;;;-1.40;72.90;;;;;;5050409;28;20208;-65
2024/01/10 11:54:43;;;;;;;30.27;11.00;;;-1.30;60.60;;;;;;5050703;28;20205;-65
2024/01/10 11:57:13;;;;;;;20.83;12.40;;;-1.00;65.10;;;;;;5050920;28;20192;-65
2024/01/10 11:59:42;;;;;;;26.60;12.57;;;-0.60;61.10;;;;;;5046303;28;20188;-65
2024/01/10 12:02:12;;;;;;;24.63;12.00;;;-0.20;60.40;;;;;;5051844;28;20478;-65
2024/01/10 12:04:39;;;;;;;33.00;13.67;;;0.10;53.40;;;;;;5043449;28;20471;-65
2024/01/10 12:07:07;;;;;;;23.03;11.90;;;0.00;53.30;;;;;;5051439;28;20448;-65
2024/01/10 12:09:34;;;;;;;24.27;12.40;;;0.10;45.20;;;;;;5052092;28;20475;-66
2024/01/10 12:12:01;;;;;;;22.50;11.70;;;0.20;45.00;;;;;;5056146;28;20471;-65
2024/01/10 12:14:29;;;;;;;24.00;12.70;;;0.50;44.50;;;;;;5055924;28;20459;-65
2024/01/10 12:16:57;;;;;;;27.90;13.33;;;0.80;45.20;;;;;;5055509;28;20873;-65
2024/01/10 12:19:25;;;;;;;22.40;12.97;;;1.00;37.10;;;;;;5055657;28;20455;-65
2024/01/10 12:21:52;;;;;;;24.70;11.80;;;1.10;37.20;;;;;;5055959;28;20997;-65
2024/01/10 12:24:19;;;;;;;24.20;16.67;;;1.00;37.00;;;;;;5055869;28;21129;-65
2024/01/10 12:26:46;;;;;;;24.07;12.63;;;1.30;37.30;;;;;;5055320;28;20937;-65
2024/01/10 12:29:13;;;;;;;29.30;12.33;;;1.40;37.40;;;;;;5055546;28;20972;-65